Terminal Aerodrome Forecast
Issued by NWS Cleveland, OH

Home | Current Version | Previous Version | Graphics & Text | Print | Product List | Glossary On
Versions: 1 2 3 4 5 6 7 8 9 10 11 12 13 14
000
FTUS41 KCLE 251120
TAFTOL
TAF
KTOL 251120Z 2512/2612 26008KT P6SM SCT080
     FM251500 27015G22KT P6SM SCT050
     FM252300 26008KT P6SM SCT050
     FM260800 25010KT P6SM OVC050=

USA.gov is the U.S. government's official web portal to all federal, state and local government web resources and services.